sensor_id;sensor_type;location;lat;lon;timestamp;pressure;altitude;pressure_sealevel;temperature;humidity
67430;BME280;54298;52.076;5.264;2024-03-23T00:53:07;100947.0;;;9.24;94.27
67430;BME280;54298;52.076;5.264;2024-03-23T00:56:19;100950.0;;;9.19;94.86
67430;BME280;54298;52.076;5.264;2024-03-23T00:57:55;100944.0;;;9.31;94.24
67430;BME280;54298;52.076;5.264;2024-03-23T00:59:31;100942.0;;;9.26;93.91
67430;BME280;54298;52.076;5.264;2024-03-23T01:01:07;100940.0;;;9.28;93.97
67430;BME280;54298;52.076;5.264;2024-03-23T01:04:19;100937.0;;;9.31;93.89
67430;BME280;54298;52.076;5.264;2024-03-23T01:05:59;100941.0;;;9.23;94.22
67430;BME280;54298;52.076;5.264;2024-03-23T01:07:35;100939.0;;;9.28;94.11
67430;BME280;54298;52.076;5.264;2024-03-23T01:10:54;100935.0;;;9.24;94.29
67430;BME280;54298;52.076;5.264;2024-03-23T01:12:30;100932.0;;;9.16;94.53
67430;BME280;54298;52.076;5.264;2024-03-23T01:14:06;100923.0;;;9.22;94.15
67430;BME280;54298;52.076;5.264;2024-03-23T01:15:48;100921.0;;;9.27;93.85
67430;BME280;54298;52.076;5.264;2024-03-23T01:19:00;100921.0;;;9.24;93.67
67430;BME280;54298;52.076;5.264;2024-03-23T01:20:36;100921.0;;;9.28;93.57
67430;BME280;54298;52.076;5.264;2024-03-23T01:22:12;100924.0;;;9.26;93.51
67430;BME280;54298;52.076;5.264;2024-03-23T01:25:25;100908.0;;;9.23;93.44
67430;BME280;54298;52.076;5.264;2024-03-23T01:27:01;100905.0;;;9.13;94.05
67430;BME280;54298;52.076;5.264;2024-03-23T01:28:37;100906.0;;;9.18;93.38
67430;BME280;54298;52.076;5.264;2024-03-23T01:31:49;100905.0;;;9.14;93.49
67430;BME280;54298;52.076;5.264;2024-03-23T01:33:25;100899.0;;;9.08;93.81
67430;BME280;54298;52.076;5.264;2024-03-23T01:35:01;100893.0;;;9.08;93.27
67430;BME280;54298;52.076;5.264;2024-03-23T01:36:37;100892.0;;;9.13;92.67
67430;BME280;54298;52.076;5.264;2024-03-23T01:39:49;100888.0;;;9.06;92.61
67430;BME280;54298;52.076;5.264;2024-03-23T01:41:25;100888.0;;;9.09;92.25
67430;BME280;54298;52.076;5.264;2024-03-23T01:43:04;100885.0;;;9.09;92.01
67430;BME280;54298;52.076;5.264;2024-03-23T01:46:17;100885.0;;;9.03;91.88
67430;BME280;54298;52.076;5.264;2024-03-23T01:47:53;100888.0;;;8.98;91.94
67430;BME280;54298;52.076;5.264;2024-03-23T01:49:29;100883.0;;;8.91;92.01
67430;BME280;54298;52.076;5.264;2024-03-23T01:52:42;100883.0;;;8.88;92.23
67430;BME280;54298;52.076;5.264;2024-03-23T01:54:18;100881.0;;;8.84;91.91
67430;BME280;54298;52.076;5.264;2024-03-23T01:55:54;100880.0;;;8.84;91.72
67430;BME280;54298;52.076;5.264;2024-03-23T01:57:31;100882.0;;;8.83;91.69
67430;BME280;54298;52.076;5.264;2024-03-23T02:00:44;100878.0;;;8.83;91.55
67430;BME280;54298;52.076;5.264;2024-03-23T02:02:20;100875.0;;;8.74;91.74
67430;BME280;54298;52.076;5.264;2024-03-23T02:03:56;100876.0;;;8.64;92.3
67430;BME280;54298;52.076;5.264;2024-03-23T02:07:09;100872.0;;;8.66;92.17
67430;BME280;54298;52.076;5.264;2024-03-23T02:08:45;100867.0;;;8.56;92.34
67430;BME280;54298;52.076;5.264;2024-03-23T02:10:21;100873.0;;;8.53;92.52
67430;BME280;54298;52.076;5.264;2024-03-23T02:13:34;100878.0;;;8.51;92.48
67430;BME280;54298;52.076;5.264;2024-03-23T02:15:10;100884.0;;;8.48;92.58
67430;BME280;54298;52.076;5.264;2024-03-23T02:16:46;100878.0;;;8.41;92.8
67430;BME280;54298;52.076;5.264;2024-03-23T02:19:59;100881.0;;;8.31;92.96
67430;BME280;54298;52.076;5.264;2024-03-23T02:21:35;100874.0;;;8.38;92.76
67430;BME280;54298;52.076;5.264;2024-03-23T02:23:13;100873.0;;;8.39;92.68
67430;BME280;54298;52.076;5.264;2024-03-23T02:24:49;100865.0;;;8.27;92.95
67430;BME280;54298;52.076;5.264;2024-03-23T02:28:01;100858.0;;;8.23;93.22
67430;BME280;54298;52.076;5.264;2024-03-23T02:29:37;100861.0;;;8.25;93.04
67430;BME280;54298;52.076;5.264;2024-03-23T02:31:13;100855.0;;;8.2;93.12
67430;BME280;54298;52.076;5.264;2024-03-23T02:34:26;100855.0;;;8.22;93.02
67430;BME280;54298;52.076;5.264;2024-03-23T02:36:02;100852.0;;;8.16;93.04
67430;BME280;54298;52.076;5.264;2024-03-23T02:37:38;100855.0;;;8.14;93.14
67430;BME280;54298;52.076;5.264;2024-03-23T02:40:50;100855.0;;;8.13;92.96
67430;BME280;54298;52.076;5.264;2024-03-23T02:42:26;100857.0;;;8.07;92.95
67430;BME280;54298;52.076;5.264;2024-03-23T02:44:02;100861.0;;;8.03;93.04
67430;BME280;54298;52.076;5.264;2024-03-23T02:45:38;100855.0;;;8.03;93.13
67430;BME280;54298;52.076;5.264;2024-03-23T02:48:51;100855.0;;;8.05;92.89
67430;BME280;54298;52.076;5.264;2024-03-23T02:50:27;100857.0;;;8.06;92.5
67430;BME280;54298;52.076;5.264;2024-03-23T02:52:03;100855.0;;;8.0;92.43
67430;BME280;54298;52.076;5.264;2024-03-23T02:55:15;100857.0;;;7.94;92.43
67430;BME280;54298;52.076;5.264;2024-03-23T02:56:51;100859.0;;;7.87;92.46
67430;BME280;54298;52.076;5.264;2024-03-23T02:58:27;100857.0;;;7.94;92.23
67430;BME280;54298;52.076;5.264;2024-03-23T03:01:40;100858.0;;;7.92;91.93
67430;BME280;54298;52.076;5.264;2024-03-23T03:03:17;100855.0;;;7.95;91.52
67430;BME280;54298;52.076;5.264;2024-03-23T03:04:53;100857.0;;;7.88;91.56
67430;BME280;54298;52.076;5.264;2024-03-23T03:08:07;100860.0;;;7.86;91.41
67430;BME280;54298;52.076;5.264;2024-03-23T03:09:43;100858.0;;;7.76;91.29
67430;BME280;54298;52.076;5.264;2024-03-23T03:11:19;100852.0;;;7.77;91.16
67430;BME280;54298;52.076;5.264;2024-03-23T03:12:55;100853.0;;;7.78;91.01
67430;BME280;54298;52.076;5.264;2024-03-23T03:16:08;100851.0;;;7.77;90.7
67430;BME280;54298;52.076;5.264;2024-03-23T03:17:44;100851.0;;;7.69;90.66
67430;BME280;54298;52.076;5.264;2024-03-23T03:19:21;100846.0;;;7.65;90.54
67430;BME280;54298;52.076;5.264;2024-03-23T03:22:33;100846.0;;;7.58;90.6
67430;BME280;54298;52.076;5.264;2024-03-23T03:24:09;100853.0;;;7.64;90.08
67430;BME280;54298;52.076;5.264;2024-03-23T03:25:45;100852.0;;;7.6;90.06
67430;BME280;54298;52.076;5.264;2024-03-23T03:28:57;100848.0;;;7.6;89.88
67430;BME280;54298;52.076;5.264;2024-03-23T03:30:33;100849.0;;;7.41;90.68
67430;BME280;54298;52.076;5.264;2024-03-23T03:32:09;100844.0;;;7.46;90.34
67430;BME280;54298;52.076;5.264;2024-03-23T03:33:45;100845.0;;;7.42;89.91
67430;BME280;54298;52.076;5.264;2024-03-23T03:36:58;100843.0;;;7.44;89.76
67430;BME280;54298;52.076;5.264;2024-03-23T03:38:34;100840.0;;;7.42;89.51
67430;BME280;54298;52.076;5.264;2024-03-23T03:40:11;100832.0;;;7.4;89.37
67430;BME280;54298;52.076;5.264;2024-03-23T03:43:24;100838.0;;;7.39;89.44
67430;BME280;54298;52.076;5.264;2024-03-23T03:45:00;100832.0;;;7.34;89.65
67430;BME280;54298;52.076;5.264;2024-03-23T03:46:36;100836.0;;;7.31;89.73
67430;BME280;54298;52.076;5.264;2024-03-23T03:49:48;100833.0;;;7.23;89.87
67430;BME280;54298;52.076;5.264;2024-03-23T03:51:24;100836.0;;;7.18;89.91
67430;BME280;54298;52.076;5.264;2024-03-23T03:53:00;100836.0;;;7.23;89.71
67430;BME280;54298;52.076;5.264;2024-03-23T03:56:13;100828.0;;;7.19;89.55
67430;BME280;54298;52.076;5.264;2024-03-23T03:57:49;100823.0;;;7.14;89.62
67430;BME280;54298;52.076;5.264;2024-03-23T03:59:26;100832.0;;;7.15;89.55
67430;BME280;54298;52.076;5.264;2024-03-23T04:01:02;100826.0;;;7.13;89.32
67430;BME280;54298;52.076;5.264;2024-03-23T04:04:14;100825.0;;;7.01;89.32
67430;BME280;54298;52.076;5.264;2024-03-23T04:05:51;100825.0;;;7.0;89.28
67430;BME280;54298;52.076;5.264;2024-03-23T04:07:27;100820.0;;;6.99;89.36
67430;BME280;54298;52.076;5.264;2024-03-23T04:10:40;100815.0;;;7.02;89.08
67430;BME280;54298;52.076;5.264;2024-03-23T04:12:16;100813.0;;;6.96;89.15
67430;BME280;54298;52.076;5.264;2024-03-23T04:13:52;100811.0;;;6.91;89.0
67430;BME280;54298;52.076;5.264;2024-03-23T04:17:04;100812.0;;;6.94;89.15
67430;BME280;54298;52.076;5.264;2024-03-23T04:18:40;100811.0;;;6.9;89.15
67430;BME280;54298;52.076;5.264;2024-03-23T04:20:16;100808.0;;;6.94;88.98
67430;BME280;54298;52.076;5.264;2024-03-23T04:21:52;100808.0;;;6.9;89.01
67430;BME280;54298;52.076;5.264;2024-03-23T04:25:05;100810.0;;;6.88;88.91
67430;BME280;54298;52.076;5.264;2024-03-23T04:26:42;100811.0;;;6.84;88.93
67430;BME280;54298;52.076;5.264;2024-03-23T04:28:19;100809.0;;;6.73;89.11
67430;BME280;54298;52.076;5.264;2024-03-23T04:31:31;100811.0;;;6.76;88.87
67430;BME280;54298;52.076;5.264;2024-03-23T04:33:07;100805.0;;;6.77;88.88
67430;BME280;54298;52.076;5.264;2024-03-23T04:34:43;100807.0;;;6.7;88.66
67430;BME280;54298;52.076;5.264;2024-03-23T04:37:56;100806.0;;;6.72;88.54
67430;BME280;54298;52.076;5.264;2024-03-23T04:39:32;100809.0;;;6.67;88.2
67430;BME280;54298;52.076;5.264;2024-03-23T04:41:08;100809.0;;;6.71;88.04
67430;BME280;54298;52.076;5.264;2024-03-23T04:44:21;100810.0;;;6.68;87.89
67430;BME280;54298;52.076;5.264;2024-03-23T04:45:57;100811.0;;;6.62;87.86
67430;BME280;54298;52.076;5.264;2024-03-23T04:47:33;100811.0;;;6.68;87.85
67430;BME280;54298;52.076;5.264;2024-03-23T04:49:09;100808.0;;;6.66;87.95
67430;BME280;54298;52.076;5.264;2024-03-23T04:52:21;100807.0;;;6.6;88.09
67430;BME280;54298;52.076;5.264;2024-03-23T04:53:57;100805.0;;;6.54;88.03
67430;BME280;54298;52.076;5.264;2024-03-23T04:55:33;100806.0;;;6.54;87.67
67430;BME280;54298;52.076;5.264;2024-03-23T04:58:45;100803.0;;;6.52;87.87
67430;BME280;54298;52.076;5.264;2024-03-23T05:00:21;100799.0;;;6.53;87.53
67430;BME280;54298;52.076;5.264;2024-03-23T05:01:57;100802.0;;;6.42;87.97
67430;BME280;54298;52.076;5.264;2024-03-23T05:05:09;100795.0;;;6.45;87.66
67430;BME280;54298;52.076;5.264;2024-03-23T05:06:45;100802.0;;;6.43;87.4
67430;BME280;54298;52.076;5.264;2024-03-23T05:08:21;100801.0;;;6.43;87.43
67430;BME280;54298;52.076;5.264;2024-03-23T05:11:33;100800.0;;;6.45;87.02
67430;BME280;54298;52.076;5.264;2024-03-23T05:13:09;100805.0;;;6.42;87.24
67430;BME280;54298;52.076;5.264;2024-03-23T05:14:45;100801.0;;;6.42;87.28
67430;BME280;54298;52.076;5.264;2024-03-23T05:16:22;100808.0;;;6.36;87.18
67430;BME280;54298;52.076;5.264;2024-03-23T05:19:34;100806.0;;;6.42;87.04
67430;BME280;54298;52.076;5.264;2024-03-23T05:21:10;100806.0;;;6.38;87.34
67430;BME280;54298;52.076;5.264;2024-03-23T05:22:46;100809.0;;;6.38;87.08
67430;BME280;54298;52.076;5.264;2024-03-23T05:25:58;100810.0;;;6.4;86.83
67430;BME280;54298;52.076;5.264;2024-03-23T05:27:34;100811.0;;;6.33;86.84
67430;BME280;54298;52.076;5.264;2024-03-23T05:29:10;100813.0;;;6.41;86.66
67430;BME280;54298;52.076;5.264;2024-03-23T05:32:26;100813.0;;;6.42;86.21
67430;BME280;54298;52.076;5.264;2024-03-23T05:34:02;100813.0;;;6.39;86.26
67430;BME280;54298;52.076;5.264;2024-03-23T05:35:39;100812.0;;;6.47;86.24
67430;BME280;54298;52.076;5.264;2024-03-23T05:37:15;100818.0;;;6.45;85.84
67430;BME280;54298;52.076;5.264;2024-03-23T05:40:27;100818.0;;;6.48;85.7
67430;BME280;54298;52.076;5.264;2024-03-23T05:42:03;100818.0;;;6.56;85.43
67430;BME280;54298;52.076;5.264;2024-03-23T05:43:39;100817.0;;;6.63;85.19
67430;BME280;54298;52.076;5.264;2024-03-23T05:46:51;100815.0;;;6.71;84.75
67430;BME280;54298;52.076;5.264;2024-03-23T05:48:28;100813.0;;;6.74;84.42
67430;BME280;54298;52.076;5.264;2024-03-23T05:50:05;100812.0;;;6.76;84.23
67430;BME280;54298;52.076;5.264;2024-03-23T05:53:17;100809.0;;;6.89;83.78
67430;BME280;54298;52.076;5.264;2024-03-23T05:54:54;100802.0;;;6.9;83.47
67430;BME280;54298;52.076;5.264;2024-03-23T05:56:30;100801.0;;;6.89;83.39
67430;BME280;54298;52.076;5.264;2024-03-23T05:58:06;100802.0;;;6.93;82.71
67430;BME280;54298;52.076;5.264;2024-03-23T06:01:18;100797.0;;;6.95;82.66
67430;BME280;54298;52.076;5.264;2024-03-23T06:02:54;100805.0;;;6.97;82.49
67430;BME280;54298;52.076;5.264;2024-03-23T06:04:30;100807.0;;;6.95;82.36
67430;BME280;54298;52.076;5.264;2024-03-23T06:07:42;100812.0;;;6.94;82.41
67430;BME280;54298;52.076;5.264;2024-03-23T06:09:19;100812.0;;;6.94;82.38
67430;BME280;54298;52.076;5.264;2024-03-23T06:10:55;100805.0;;;6.92;82.45
67430;BME280;54298;52.076;5.264;2024-03-23T06:14:07;100809.0;;;6.89;82.33
67430;BME280;54298;52.076;5.264;2024-03-23T06:15:43;100807.0;;;6.85;82.33
67430;BME280;54298;52.076;5.264;2024-03-23T06:17:19;100808.0;;;6.72;82.75
67430;BME280;54298;52.076;5.264;2024-03-23T06:20:31;100810.0;;;6.82;82.62
67430;BME280;54298;52.076;5.264;2024-03-23T06:22:07;100811.0;;;6.9;82.5
67430;BME280;54298;52.076;5.264;2024-03-23T06:23:44;100810.0;;;6.89;82.44
67430;BME280;54298;52.076;5.264;2024-03-23T06:25:21;100805.0;;;6.81;82.53
67430;BME280;54298;52.076;5.264;2024-03-23T06:28:33;100805.0;;;6.77;82.68
67430;BME280;54298;52.076;5.264;2024-03-23T06:30:10;100807.0;;;6.9;82.66
67430;BME280;54298;52.076;5.264;2024-03-23T06:31:53;100805.0;;;6.9;82.59
67430;BME280;54298;52.076;5.264;2024-03-23T06:35:06;100802.0;;;6.96;82.54
67430;BME280;54298;52.076;5.264;2024-03-23T06:36:42;100791.0;;;7.03;82.45
67430;BME280;54298;52.076;5.264;2024-03-23T06:38:18;100794.0;;;7.01;82.57
67430;BME280;54298;52.076;5.264;2024-03-23T06:41:31;100791.0;;;7.13;82.68
67430;BME280;54298;52.076;5.264;2024-03-23T06:43:07;100789.0;;;7.11;82.68
67430;BME280;54298;52.076;5.264;2024-03-23T06:44:43;100791.0;;;7.22;82.5
67430;BME280;54298;52.076;5.264;2024-03-23T06:46:19;100789.0;;;7.29;82.31
67430;BME280;54298;52.076;5.264;2024-03-23T06:49:31;100790.0;;;7.27;82.32
67430;BME280;54298;52.076;5.264;2024-03-23T06:51:07;100793.0;;;7.17;82.43
67430;BME280;54298;52.076;5.264;2024-03-23T06:52:43;100796.0;;;7.13;82.59
67430;BME280;54298;52.076;5.264;2024-03-23T06:55:56;100793.0;;;7.21;82.42
67430;BME280;54298;52.076;5.264;2024-03-23T06:57:32;100793.0;;;7.22;82.41
67430;BME280;54298;52.076;5.264;2024-03-23T06:59:08;100794.0;;;7.36;81.83
67430;BME280;54298;52.076;5.264;2024-03-23T07:02:20;100796.0;;;7.39;81.48
67430;BME280;54298;52.076;5.264;2024-03-23T07:03:56;100796.0;;;7.51;81.74
67430;BME280;54298;52.076;5.264;2024-03-23T07:05:32;100798.0;;;7.5;81.28
67430;BME280;54298;52.076;5.264;2024-03-23T07:07:08;100795.0;;;7.41;81.3
67430;BME280;54298;52.076;5.264;2024-03-23T07:10:20;100791.0;;;7.54;81.37
67430;BME280;54298;52.076;5.264;2024-03-23T07:11:57;100796.0;;;7.66;81.08
67430;BME280;54298;52.076;5.264;2024-03-23T07:13:33;100801.0;;;7.61;81.05
67430;BME280;54298;52.076;5.264;2024-03-23T07:16:45;100796.0;;;7.7;80.77
67430;BME280;54298;52.076;5.264;2024-03-23T07:18:22;100796.0;;;7.67;80.75
67430;BME280;54298;52.076;5.264;2024-03-23T07:19:59;100792.0;;;7.6;80.47
67430;BME280;54298;52.076;5.264;2024-03-23T07:23:11;100797.0;;;7.64;80.66
67430;BME280;54298;52.076;5.264;2024-03-23T07:24:47;100802.0;;;7.69;80.2
67430;BME280;54298;52.076;5.264;2024-03-23T07:26:24;100805.0;;;7.66;79.77
67430;BME280;54298;52.076;5.264;2024-03-23T07:29:36;100798.0;;;7.74;79.58
67430;BME280;54298;52.076;5.264;2024-03-23T07:31:13;100797.0;;;7.91;79.45
67430;BME280;54298;52.076;5.264;2024-03-23T07:32:49;100802.0;;;7.94;79.41
67430;BME280;54298;52.076;5.264;2024-03-23T07:34:25;100799.0;;;7.89;79.31
67430;BME280;54298;52.076;5.264;2024-03-23T07:37:38;100801.0;;;8.03;79.22
67430;BME280;54298;52.076;5.264;2024-03-23T07:39:14;100805.0;;;8.08;78.8
67430;BME280;54298;52.076;5.264;2024-03-23T07:40:50;100794.0;;;8.1;77.69
67430;BME280;54298;52.076;5.264;2024-03-23T07:44:05;100800.0;;;8.15;77.37
67430;BME280;54298;52.076;5.264;2024-03-23T07:45:41;100798.0;;;8.06;77.22
67430;BME280;54298;52.076;5.264;2024-03-23T07:47:17;100805.0;;;8.14;76.66
67430;BME280;54298;52.076;5.264;2024-03-23T07:50:29;100799.0;;;8.14;75.8
67430;BME280;54298;52.076;5.264;2024-03-23T07:52:05;100805.0;;;8.34;76.33
67430;BME280;54298;52.076;5.264;2024-03-23T07:53:43;100800.0;;;8.48;75.27
67430;BME280;54298;52.076;5.264;2024-03-23T07:55:19;100800.0;;;8.57;74.87
67430;BME280;54298;52.076;5.264;2024-03-23T07:58:32;100795.0;;;8.64;74.8
67430;BME280;54298;52.076;5.264;2024-03-23T08:00:10;100795.0;;;8.75;73.83
67430;BME280;54298;52.076;5.264;2024-03-23T08:01:46;100793.0;;;8.73;73.84
67430;BME280;54298;52.076;5.264;2024-03-23T08:04:58;100796.0;;;8.67;73.52
67430;BME280;54298;52.076;5.264;2024-03-23T08:06:34;100792.0;;;8.8;73.12
67430;BME280;54298;52.076;5.264;2024-03-23T08:08:10;100793.0;;;8.8;73.23
67430;BME280;54298;52.076;5.264;2024-03-23T08:11:22;100788.0;;;8.91;72.94
67430;BME280;54298;52.076;5.264;2024-03-23T08:12:59;100790.0;;;8.73;71.49
67430;BME280;54298;52.076;5.264;2024-03-23T08:14:36;100790.0;;;8.84;72.06
67430;BME280;54298;52.076;5.264;2024-03-23T08:16:12;100801.0;;;8.77;72.08
67430;BME280;54298;52.076;5.264;2024-03-23T08:19:25;100798.0;;;8.52;70.58
67430;BME280;54298;52.076;5.264;2024-03-23T08:21:02;100795.0;;;8.52;71.09
67430;BME280;54298;52.076;5.264;2024-03-23T08:22:39;100790.0;;;8.64;71.31
67430;BME280;54298;52.076;5.264;2024-03-23T08:25:51;100794.0;;;8.72;71.38
67430;BME280;54298;52.076;5.264;2024-03-23T08:27:28;100793.0;;;8.77;71.41
67430;BME280;54298;52.076;5.264;2024-03-23T08:29:05;100789.0;;;8.85;71.22
67430;BME280;54298;52.076;5.264;2024-03-23T08:32:17;100785.0;;;8.98;71.0
67430;BME280;54298;52.076;5.264;2024-03-23T08:33:53;100794.0;;;9.14;71.05
67430;BME280;54298;52.076;5.264;2024-03-23T08:35:29;100794.0;;;9.19;70.44
67430;BME280;54298;52.076;5.264;2024-03-23T08:37:05;100797.0;;;9.06;68.77
67430;BME280;54298;52.076;5.264;2024-03-23T08:40:17;100794.0;;;9.09;69.09
67430;BME280;54298;52.076;5.264;2024-03-23T08:41:53;100795.0;;;9.14;67.66
67430;BME280;54298;52.076;5.264;2024-03-23T08:43:32;100793.0;;;8.99;67.89
67430;BME280;54298;52.076;5.264;2024-03-23T08:46:44;100805.0;;;8.93;67.55
67430;BME280;54298;52.076;5.264;2024-03-23T08:48:20;100805.0;;;8.84;66.84
67430;BME280;54298;52.076;5.264;2024-03-23T08:49:56;100806.0;;;8.74;67.17
67430;BME280;54298;52.076;5.264;2024-03-23T08:53:08;100803.0;;;8.72;67.08
67430;BME280;54298;52.076;5.264;2024-03-23T08:54:44;100800.0;;;8.68;67.81
67430;BME280;54298;52.076;5.264;2024-03-23T08:56:20;100801.0;;;8.63;67.12
67430;BME280;54298;52.076;5.264;2024-03-23T08:59:33;100799.0;;;8.56;67.19
67430;BME280;54298;52.076;5.264;2024-03-23T09:01:09;100795.0;;;8.47;66.98
67430;BME280;54298;52.076;5.264;2024-03-23T09:02:47;100787.0;;;8.44;67.02
67430;BME280;54298;52.076;5.264;2024-03-23T09:04:23;100789.0;;;8.55;66.87
67430;BME280;54298;52.076;5.264;2024-03-23T09:07:35;100796.0;;;8.39;66.58
67430;BME280;54298;52.076;5.264;2024-03-23T09:09:11;100789.0;;;8.4;66.66
67430;BME280;54298;52.076;5.264;2024-03-23T09:10:47;100799.0;;;8.56;66.66
67430;BME280;54298;52.076;5.264;2024-03-23T09:14:01;100791.0;;;8.6;66.35
67430;BME280;54298;52.076;5.264;2024-03-23T09:15:38;100790.0;;;8.64;67.09
67430;BME280;54298;52.076;5.264;2024-03-23T09:17:23;100783.0;;;8.84;67.14
67430;BME280;54298;52.076;5.264;2024-03-23T09:18:59;100785.0;;;8.97;66.19
67430;BME280;54298;52.076;5.264;2024-03-23T09:22:11;100777.0;;;9.14;66.83
67430;BME280;54298;52.076;5.264;2024-03-23T09:23:47;100777.0;;;9.26;65.77
67430;BME280;54298;52.076;5.264;2024-03-23T09:25:23;100776.0;;;9.26;65.94
67430;BME280;54298;52.076;5.264;2024-03-23T09:28:35;100776.0;;;9.31;65.73
67430;BME280;54298;52.076;5.264;2024-03-23T09:30:13;100781.0;;;9.47;65.33
67430;BME280;54298;52.076;5.264;2024-03-23T09:31:50;100780.0;;;9.55;64.16
67430;BME280;54298;52.076;5.264;2024-03-23T09:35:02;100780.0;;;9.55;62.77
67430;BME280;54298;52.076;5.264;2024-03-23T09:38:15;100780.0;;;9.75;63.2
67430;BME280;54298;52.076;5.264;2024-03-23T09:39:51;100780.0;;;9.61;64.22
67430;BME280;54298;52.076;5.264;2024-03-23T09:43:06;100772.0;;;9.53;64.27
67430;BME280;54298;52.076;5.264;2024-03-23T09:44:43;100785.0;;;9.44;63.28
67430;BME280;54298;52.076;5.264;2024-03-23T09:46:19;100776.0;;;9.44;63.2
67430;BME280;54298;52.076;5.264;2024-03-23T09:49:34;100789.0;;;9.43;63.25
67430;BME280;54298;52.076;5.264;2024-03-23T09:51:11;100778.0;;;9.55;61.9
67430;BME280;54298;52.076;5.264;2024-03-23T09:52:47;100770.0;;;9.39;61.04
67430;BME280;54298;52.076;5.264;2024-03-23T09:56:00;100773.0;;;9.43;61.57
67430;BME280;54298;52.076;5.264;2024-03-23T09:57:36;100780.0;;;9.48;62.1
67430;BME280;54298;52.076;5.264;2024-03-23T09:59:12;100775.0;;;9.25;62.23
67430;BME280;54298;52.076;5.264;2024-03-23T10:00:48;100776.0;;;9.07;62.4
67430;BME280;54298;52.076;5.264;2024-03-23T10:04:02;100773.0;;;8.98;63.28
67430;BME280;54298;52.076;5.264;2024-03-23T10:05:39;100766.0;;;8.89;64.05
67430;BME280;54298;52.076;5.264;2024-03-23T10:07:18;100775.0;;;8.97;64.8
67430;BME280;54298;52.076;5.264;2024-03-23T10:10:31;100760.0;;;9.01;63.1
67430;BME280;54298;52.076;5.264;2024-03-23T10:12:09;100768.0;;;9.23;62.5
67430;BME280;54298;52.076;5.264;2024-03-23T10:13:45;100764.0;;;9.35;61.43
67430;BME280;54298;52.076;5.264;2024-03-23T10:17:12;100774.0;;;9.44;61.06
67430;BME280;54298;52.076;5.264;2024-03-23T10:18:49;100774.0;;;9.61;60.54
67430;BME280;54298;52.076;5.264;2024-03-23T10:20:26;100766.0;;;9.61;60.53
67430;BME280;54298;52.076;5.264;2024-03-23T10:22:02;100766.0;;;9.69;61.06
67430;BME280;54298;52.076;5.264;2024-03-23T10:25:16;100763.0;;;9.77;60.46
67430;BME280;54298;52.076;5.264;2024-03-23T10:26:55;100768.0;;;9.78;59.5
67430;BME280;54298;52.076;5.264;2024-03-23T10:28:32;100763.0;;;9.89;59.96
67430;BME280;54298;52.076;5.264;2024-03-23T10:30:09;100763.0;;;9.82;58.59
67430;BME280;54298;52.076;5.264;2024-03-23T10:33:22;100755.0;;;10.03;59.36
67430;BME280;54298;52.076;5.264;2024-03-23T10:35:13;100769.0;;;10.09;58.42
67430;BME280;54298;52.076;5.264;2024-03-23T10:36:53;100764.0;;;10.07;58.03
67430;BME280;54298;52.076;5.264;2024-03-23T10:38:29;100769.0;;;10.28;57.68
67430;BME280;54298;52.076;5.264;2024-03-23T10:41:45;100780.0;;;10.06;57.53
67430;BME280;54298;52.076;5.264;2024-03-23T10:43:21;100831.0;;;9.85;61.81
67430;BME280;54298;52.076;5.264;2024-03-23T10:44:58;100812.0;;;9.16;67.89
67430;BME280;54298;52.076;5.264;2024-03-23T10:48:10;100809.0;;;8.59;70.69
67430;BME280;54298;52.076;5.264;2024-03-23T10:49:46;100802.0;;;8.4;73.0
67430;BME280;54298;52.076;5.264;2024-03-23T10:51:22;100797.0;;;8.14;73.28
67430;BME280;54298;52.076;5.264;2024-03-23T10:54:35;100791.0;;;7.83;74.72
67430;BME280;54298;52.076;5.264;2024-03-23T10:56:12;100782.0;;;7.71;76.24
67430;BME280;54298;52.076;5.264;2024-03-23T10:57:53;100778.0;;;7.85;77.63
67430;BME280;54298;52.076;5.264;2024-03-23T10:59:31;100777.0;;;7.94;78.97
67430;BME280;54298;52.076;5.264;2024-03-23T11:02:47;100778.0;;;7.99;80.0
67430;BME280;54298;52.076;5.264;2024-03-23T11:04:30;100774.0;;;7.99;78.83
67430;BME280;54298;52.076;5.264;2024-03-23T11:06:08;100775.0;;;8.09;79.25
67430;BME280;54298;52.076;5.264;2024-03-23T11:07:50;100780.0;;;8.06;79.13
67430;BME280;54298;52.076;5.264;2024-03-23T11:11:22;100777.0;;;8.25;78.83
67430;BME280;54298;52.076;5.264;2024-03-23T11:13:21;100780.0;;;8.23;79.45
67430;BME280;54298;52.076;5.264;2024-03-23T11:15:01;100777.0;;;8.34;79.47
67430;BME280;54298;52.076;5.264;2024-03-23T11:16:38;100759.0;;;8.48;79.2
67430;BME280;54298;52.076;5.264;2024-03-23T11:18:20;100769.0;;;8.64;78.23
67430;BME280;54298;52.076;5.264;2024-03-23T11:21:54;100766.0;;;8.75;75.89
67430;BME280;54298;52.076;5.264;2024-03-23T11:23:30;100764.0;;;8.81;69.77
67430;BME280;54298;52.076;5.264;2024-03-23T11:25:19;100767.0;;;8.89;70.13
67430;BME280;54298;52.076;5.264;2024-03-23T11:26:56;100764.0;;;8.96;69.12
67430;BME280;54298;52.076;5.264;2024-03-23T11:30:11;100756.0;;;9.01;68.75
67430;BME280;54298;52.076;5.264;2024-03-23T11:31:51;100758.0;;;9.14;69.53
67430;BME280;54298;52.076;5.264;2024-03-23T11:33:27;100765.0;;;9.07;67.08
67430;BME280;54298;52.076;5.264;2024-03-23T11:35:04;100766.0;;;9.14;66.03
67430;BME280;54298;52.076;5.264;2024-03-23T11:38:17;100762.0;;;9.09;66.83
67430;BME280;54298;52.076;5.264;2024-03-23T11:39:53;100758.0;;;9.0;64.55
67430;BME280;54298;52.076;5.264;2024-03-23T11:41:30;100758.0;;;8.98;63.72
67430;BME280;54298;52.076;5.264;2024-03-23T11:44:44;100755.0;;;9.23;64.44
67430;BME280;54298;52.076;5.264;2024-03-23T11:46:22;100756.0;;;9.28;64.06
67430;BME280;54298;52.076;5.264;2024-03-23T11:48:05;100755.0;;;9.41;64.13
67430;BME280;54298;52.076;5.264;2024-03-23T11:49:41;100751.0;;;9.47;62.23
67430;BME280;54298;52.076;5.264;2024-03-23T11:53:06;100758.0;;;9.4;61.9
67430;BME280;54298;52.076;5.264;2024-03-23T11:54:42;100751.0;;;9.3;61.5
67430;BME280;54298;52.076;5.264;2024-03-23T11:56:18;100751.0;;;9.24;61.76
67430;BME280;54298;52.076;5.264;2024-03-23T11:57:55;100742.0;;;9.31;62.61
67430;BME280;54298;52.076;5.264;2024-03-23T12:01:10;100750.0;;;9.4;62.88
67430;BME280;54298;52.076;5.264;2024-03-23T12:02:46;100744.0;;;9.59;63.8
67430;BME280;54298;52.076;5.264;2024-03-23T12:04:25;100752.0;;;9.52;62.4
67430;BME280;54298;52.076;5.264;2024-03-23T12:07:40;100737.0;;;9.57;61.07
67430;BME280;54298;52.076;5.264;2024-03-23T12:09:16;100736.0;;;9.68;61.26